Time;durP1;ratioP1;P1;durP2;ratioP2;P2;SDS_P1;SDS_P2;PMS_P1;PMS_P2;Temp;Humidity;BMP_temperature;BMP_pressure;BME280_temperature;BME280_humidity;BME280_pressure;Samples;Min_cycle;Max_cycle;Signal;HPM_P1;HPM_P2
2024/04/13 00:00:23;;;;;;;9.27;6.97;;;;;;;;;;5477110;26;20019;-80
2024/04/13 00:02:59;;;;;;;7.95;6.97;;;;;;;;;;5512199;26;20025;-80
2024/04/13 00:05:38;;;;;;;6.88;5.85;;;;;;;;;;5505361;26;20601;-80
2024/04/13 00:08:12;;;;;;;8.30;5.65;;;;;;;;;;5484433;26;20678;-79
2024/04/13 00:10:47;;;;;;;9.50;6.68;;;;;;;;;;5546958;26;20004;-81
2024/04/13 00:13:20;;;;;;;9.63;6.40;;;;;;;;;;5512959;26;20005;-81
2024/04/13 00:15:58;;;;;;;11.25;6.22;;;;;;;;;;5491546;26;20341;-79
2024/04/13 00:18:34;;;;;;;8.07;6.10;;;;;;;;;;5554200;26;20154;-80
2024/04/13 00:21:17;;;;;;;11.30;6.45;;;;;;;;;;5546063;26;20453;-80
2024/04/13 00:23:52;;;;;;;10.65;6.88;;;;;;;;;;5516988;26;20008;-80
2024/04/13 00:26:34;;;;;;;8.75;6.57;;;;;;;;;;5489159;26;20005;-80
2024/04/13 00:29:06;;;;;;;8.15;6.85;;;;;;;;;;5537652;26;20012;-81
2024/04/13 00:31:43;;;;;;;9.82;7.03;;;;;;;;;;5512824;26;20049;-80
2024/04/13 00:34:19;;;;;;;6.55;5.32;;;;;;;;;;5521973;26;20334;-80
2024/04/13 00:36:57;;;;;;;10.18;6.55;;;;;;;;;;5544865;26;20024;-80
2024/04/13 00:39:33;;;;;;;10.60;6.10;;;;;;;;;;5491513;26;20001;-80
2024/04/13 00:42:08;;;;;;;7.95;5.95;;;;;;;;;;5539330;26;20000;-79
2024/04/13 00:44:42;;;;;;;9.43;6.53;;;;;;;;;;5549687;26;20089;-79
2024/04/13 00:47:20;;;;;;;10.02;6.88;;;;;;;;;;5495336;26;19993;-80
2024/04/13 00:49:55;;;;;;;8.07;6.90;;;;;;;;;;5520994;26;20029;-79
2024/04/13 00:52:33;;;;;;;8.77;7.65;;;;;;;;;;5536757;26;20493;-80
2024/04/13 00:55:08;;;;;;;11.80;8.57;;;;;;;;;;5549420;26;20004;-80
2024/04/13 00:57:45;;;;;;;9.80;8.30;;;;;;;;;;5539417;26;20011;-80
2024/04/13 01:00:20;;;;;;;11.45;8.48;;;;;;;;;;5549278;26;20446;-79
2024/04/13 01:03:00;;;;;;;9.53;8.47;;;;;;;;;;5516579;26;20353;-79
2024/04/13 01:05:33;;;;;;;14.48;8.55;;;;;;;;;;5513599;26;20038;-79
2024/04/13 01:08:14;;;;;;;12.98;8.35;;;;;;;;;;5542740;26;20004;-80
2024/04/13 01:10:47;;;;;;;13.05;8.93;;;;;;;;;;5539326;26;20004;-79
2024/04/13 01:13:23;;;;;;;9.15;7.72;;;;;;;;;;5546897;26;20078;-80
2024/04/13 01:16:04;;;;;;;9.55;8.45;;;;;;;;;;5544319;26;20023;-80
2024/04/13 01:18:39;;;;;;;11.73;8.30;;;;;;;;;;5514342;26;20481;-80
2024/04/13 01:21:18;;;;;;;12.10;9.30;;;;;;;;;;5519073;26;20326;-79
2024/04/13 01:24:01;;;;;;;14.18;9.48;;;;;;;;;;5495280;26;20008;-80
2024/04/13 01:26:38;;;;;;;11.20;9.50;;;;;;;;;;5543251;26;20005;-79
2024/04/13 01:29:12;;;;;;;14.00;9.30;;;;;;;;;;5510361;26;20000;-80
2024/04/13 01:31:50;;;;;;;10.52;9.43;;;;;;;;;;5511376;26;20074;-80
2024/04/13 01:34:22;;;;;;;13.18;9.00;;;;;;;;;;5519163;26;20540;-80
2024/04/13 01:36:57;;;;;;;12.35;9.10;;;;;;;;;;5549383;26;19996;-79
2024/04/13 01:39:34;;;;;;;10.88;7.50;;;;;;;;;;5527034;26;20456;-80
2024/04/13 01:42:09;;;;;;;9.75;8.60;;;;;;;;;;5544160;26;20008;-79
2024/04/13 01:44:45;;;;;;;12.27;8.73;;;;;;;;;;5512403;26;20015;-80
2024/04/13 01:47:19;;;;;;;10.30;8.48;;;;;;;;;;5546708;26;20008;-80
2024/04/13 01:49:56;;;;;;;14.57;9.35;;;;;;;;;;5517832;26;20005;-79
2024/04/13 01:52:34;;;;;;;11.23;9.18;;;;;;;;;;5515536;26;20432;-79
2024/04/13 01:55:09;;;;;;;12.98;8.73;;;;;;;;;;5516889;26;20462;-80
2024/04/13 01:57:47;;;;;;;12.65;9.55;;;;;;;;;;5516292;26;20001;-80
2024/04/13 02:00:21;;;;;;;12.23;8.70;;;;;;;;;;5562061;26;20082;-80
2024/04/13 02:02:56;;;;;;;12.88;9.80;;;;;;;;;;5491722;26;20005;-80
2024/04/13 02:05:35;;;;;;;12.90;9.07;;;;;;;;;;5548742;26;20039;-80
2024/04/13 02:08:09;;;;;;;13.18;8.95;;;;;;;;;;5555317;26;20003;-79
2024/04/13 02:10:48;;;;;;;10.80;9.00;;;;;;;;;;5516652;26;20001;-81
2024/04/13 02:13:23;;;;;;;10.32;8.73;;;;;;;;;;5522525;26;20019;-79
2024/04/13 02:15:57;;;;;;;11.65;9.35;;;;;;;;;;5553562;26;20385;-79
2024/04/13 02:18:31;;;;;;;11.40;8.98;;;;;;;;;;5550125;26;20000;-79
2024/04/13 02:21:05;;;;;;;10.45;9.35;;;;;;;;;;5519192;26;20505;-79
2024/04/13 02:23:41;;;;;;;12.40;9.30;;;;;;;;;;5494378;26;20001;-80
2024/04/13 02:26:19;;;;;;;11.05;8.68;;;;;;;;;;5525769;26;20007;-80
2024/04/13 02:28:54;;;;;;;12.52;9.05;;;;;;;;;;5518750;26;20020;-79
2024/04/13 02:31:33;;;;;;;12.10;8.82;;;;;;;;;;5544285;26;21223;-80
2024/04/13 02:34:11;;;;;;;12.73;8.90;;;;;;;;;;5555435;26;20054;-80
2024/04/13 02:36:43;;;;;;;11.63;8.82;;;;;;;;;;5526749;26;20000;-80
2024/04/13 02:39:18;;;;;;;11.60;8.60;;;;;;;;;;5553125;26;20362;-80
2024/04/13 02:41:55;;;;;;;13.23;9.68;;;;;;;;;;5493748;26;20008;-80
2024/04/13 02:44:29;;;;;;;10.65;8.52;;;;;;;;;;5544103;26;20913;-79
2024/04/13 02:47:05;;;;;;;11.02;8.50;;;;;;;;;;5511592;26;20023;-80
2024/04/13 02:49:43;;;;;;;14.32;9.85;;;;;;;;;;5547349;26;20028;-80
2024/04/13 02:52:20;;;;;;;11.63;8.82;;;;;;;;;;5524402;26;20015;-79
2024/04/13 02:54:59;;;;;;;19.77;9.45;;;;;;;;;;5520776;26;20009;-80
2024/04/13 02:57:35;;;;;;;11.82;9.00;;;;;;;;;;5542619;26;20001;-78
2024/04/13 03:00:14;;;;;;;13.80;8.38;;;;;;;;;;5526444;26;20085;-80
2024/04/13 03:02:47;;;;;;;16.15;10.02;;;;;;;;;;5520189;26;20026;-79
2024/04/13 03:05:21;;;;;;;13.68;10.02;;;;;;;;;;5524773;26;20017;-79
2024/04/13 03:08:00;;;;;;;11.57;8.13;;;;;;;;;;5508430;26;20568;-80
2024/04/13 03:10:37;;;;;;;16.15;9.45;;;;;;;;;;5543744;26;20004;-81
2024/04/13 03:13:12;;;;;;;10.82;8.60;;;;;;;;;;5515034;26;20023;-79
2024/04/13 03:15:50;;;;;;;12.73;8.98;;;;;;;;;;5545378;26;20036;-80
2024/04/13 03:18:22;;;;;;;10.05;7.85;;;;;;;;;;5542661;26;20030;-79
2024/04/13 03:21:03;;;;;;;9.68;8.45;;;;;;;;;;5513882;26;20019;-80
2024/04/13 03:23:36;;;;;;;14.60;9.07;;;;;;;;;;5533126;26;20012;-80
2024/04/13 03:26:11;;;;;;;13.52;9.15;;;;;;;;;;5488842;26;20012;-79
2024/04/13 03:28:47;;;;;;;11.55;8.45;;;;;;;;;;5519663;26;20019;-79
2024/04/13 03:31:22;;;;;;;14.55;9.40;;;;;;;;;;5519660;26;20012;-79
2024/04/13 03:33:58;;;;;;;16.05;10.05;;;;;;;;;;5548569;26;20350;-79
2024/04/13 03:36:33;;;;;;;13.85;9.05;;;;;;;;;;5520324;26;20004;-80
2024/04/13 03:39:08;;;;;;;;;;;;;;;;;;5517747;26;20015;-80
2024/04/13 03:41:43;;;;;;;10.65;9.38;;;;;;;;;;5553276;26;20559;-79
2024/04/13 03:44:20;;;;;;;12.10;8.45;;;;;;;;;;5515861;26;20004;-80
2024/04/13 03:47:00;;;;;;;11.98;9.15;;;;;;;;;;5486511;26;20078;-79
2024/04/13 03:49:35;;;;;;;12.38;9.45;;;;;;;;;;5547748;26;20012;-79
2024/04/13 03:52:10;;;;;;;14.38;8.20;;;;;;;;;;5543715;26;20094;-80
2024/04/13 03:54:44;;;;;;;18.33;9.27;;;;;;;;;;5544779;26;20019;-80
2024/04/13 03:57:19;;;;;;;14.65;10.18;;;;;;;;;;5513302;26;20008;-80
2024/04/13 03:59:57;;;;;;;12.93;8.60;;;;;;;;;;5531196;26;20472;-80
2024/04/13 04:02:44;;;;;;;11.70;9.35;;;;;;;;;;5531745;26;20014;-80
2024/04/13 04:05:22;;;;;;;12.57;9.35;;;;;;;;;;5511632;26;20848;-80
2024/04/13 04:07:56;;;;;;;10.63;9.40;;;;;;;;;;5482562;26;20019;-80
2024/04/13 04:10:31;;;;;;;11.00;7.15;;;;;;;;;;5478230;26;20017;-80
2024/04/13 04:13:05;;;;;;;12.93;9.15;;;;;;;;;;5540093;26;20004;-80
2024/04/13 04:15:46;;;;;;;14.95;9.80;;;;;;;;;;5551864;26;20342;-79
2024/04/13 04:18:20;;;;;;;15.75;9.13;;;;;;;;;;5509542;26;20008;-79
2024/04/13 04:20:55;;;;;;;16.20;9.73;;;;;;;;;;5514434;26;20008;-79
2024/04/13 04:23:28;;;;;;;14.73;9.63;;;;;;;;;;5545421;26;20008;-79
2024/04/13 04:26:03;;;;;;;13.60;9.57;;;;;;;;;;5489368;26;20004;-79
2024/04/13 04:28:36;;;;;;;11.90;9.52;;;;;;;;;;5506884;26;20102;-80
2024/04/13 04:31:16;;;;;;;12.73;9.52;;;;;;;;;;5551706;26;20586;-80
2024/04/13 04:33:53;;;;;;;11.02;8.45;;;;;;;;;;5512002;26;20019;-80
2024/04/13 04:36:33;;;;;;;12.70;9.48;;;;;;;;;;5535961;26;19996;-79
2024/04/13 04:39:07;;;;;;;15.07;9.88;;;;;;;;;;5545648;26;20488;-79
2024/04/13 04:41:48;;;;;;;11.93;9.20;;;;;;;;;;5520419;26;20048;-79
2024/04/13 04:44:19;;;;;;;12.75;8.95;;;;;;;;;;5514070;26;20012;-80
2024/04/13 04:46:57;;;;;;;13.10;9.68;;;;;;;;;;5517177;26;20015;-80
2024/04/13 04:49:33;;;;;;;12.43;9.52;;;;;;;;;;5508404;26;20004;-79
2024/04/13 04:52:08;;;;;;;12.63;9.77;;;;;;;;;;5539718;26;20012;-79
2024/04/13 04:54:43;;;;;;;;;;;;;;;;;;5514686;26;20012;-79
2024/04/13 04:57:18;;;;;;;14.48;10.77;;;;;;;;;;5538544;26;20070;-79
2024/04/13 04:59:50;;;;;;;15.48;9.77;;;;;;;;;;5514581;26;19997;-79
2024/04/13 05:02:27;;;;;;;13.70;9.98;;;;;;;;;;5510765;26;20004;-80
2024/04/13 05:05:03;;;;;;;14.13;10.48;;;;;;;;;;5517354;26;20032;-80
2024/04/13 05:07:39;;;;;;;11.45;8.65;;;;;;;;;;5490844;26;19996;-80
2024/04/13 05:10:27;;;;;;;12.23;9.50;;;;;;;;;;5547349;26;20000;-80
2024/04/13 05:13:04;;;;;;;12.07;9.68;;;;;;;;;;5543753;26;20000;-80
2024/04/13 05:15:36;;;;;;;16.10;9.52;;;;;;;;;;5525351;26;20004;-80
2024/04/13 05:18:15;;;;;;;11.70;10.00;;;;;;;;;;5522364;26;20016;-80
2024/04/13 05:20:47;;;;;;;13.57;9.07;;;;;;;;;;5500341;26;20009;-81
2024/04/13 05:23:25;;;;;;;17.08;11.18;;;;;;;;;;5493777;26;21502;-80
2024/04/13 05:25:59;;;;;;;11.57;9.98;;;;;;;;;;5539238;26;20013;-79
2024/04/13 05:28:34;;;;;;;15.83;11.47;;;;;;;;;;5545870;26;20050;-80
2024/04/13 05:31:09;;;;;;;11.95;10.70;;;;;;;;;;5552849;26;20268;-80
2024/04/13 05:33:48;;;;;;;17.13;10.52;;;;;;;;;;5490712;26;20359;-80
2024/04/13 05:36:21;;;;;;;15.57;11.35;;;;;;;;;;5493593;26;20392;-81
2024/04/13 05:38:56;;;;;;;14.93;11.82;;;;;;;;;;5556691;26;20000;-79
2024/04/13 05:41:29;;;;;;;15.23;11.35;;;;;;;;;;5496185;26;20009;-80
2024/04/13 05:44:07;;;;;;;16.88;10.73;;;;;;;;;;5539518;26;20016;-79
2024/04/13 05:46:42;;;;;;;12.80;10.23;;;;;;;;;;5491646;26;20006;-79
2024/04/13 05:49:20;;;;;;;12.93;11.50;;;;;;;;;;5535490;26;20011;-79
2024/04/13 05:51:52;;;;;;;16.90;12.23;;;;;;;;;;5534072;26;20000;-80
2024/04/13 05:54:28;;;;;;;15.25;11.43;;;;;;;;;;5545430;26;20001;-79
2024/04/13 05:57:03;;;;;;;12.02;10.80;;;;;;;;;;5514359;26;20007;-79
2024/04/13 05:59:41;;;;;;;13.25;11.75;;;;;;;;;;5539556;26;20018;-79
2024/04/13 06:02:13;;;;;;;14.38;11.75;;;;;;;;;;5501047;26;20029;-80
2024/04/13 06:04:51;;;;;;;17.00;12.10;;;;;;;;;;5514471;26;20010;-80
2024/04/13 06:07:24;;;;;;;13.45;11.13;;;;;;;;;;5514825;26;20078;-80
2024/04/13 06:09:59;;;;;;;11.48;10.35;;;;;;;;;;5519610;26;20520;-80
2024/04/13 06:12:35;;;;;;;13.55;10.50;;;;;;;;;;5521176;26;20450;-80
2024/04/13 06:15:10;;;;;;;13.90;10.68;;;;;;;;;;5517182;26;20011;-80
2024/04/13 06:17:46;;;;;;;13.55;10.85;;;;;;;;;;5511691;26;20515;-80
2024/04/13 06:20:23;;;;;;;11.75;10.57;;;;;;;;;;5479470;26;20664;-81
2024/04/13 06:23:01;;;;;;;14.85;11.73;;;;;;;;;;5543011;26;20008;-80
2024/04/13 06:25:35;;;;;;;15.88;11.68;;;;;;;;;;5524324;26;20004;-80
2024/04/13 06:28:14;;;;;;;13.57;12.05;;;;;;;;;;5487951;26;20009;-80
2024/04/13 06:30:48;;;;;;;16.85;11.63;;;;;;;;;;5516390;26;20023;-81
2024/04/13 06:33:22;;;;;;;13.88;11.10;;;;;;;;;;5543461;26;20015;-82
2024/04/13 06:36:02;;;;;;;12.48;10.63;;;;;;;;;;5545116;26;20016;-81
2024/04/13 06:38:38;;;;;;;14.25;10.68;;;;;;;;;;5547726;26;20004;-79
2024/04/13 06:41:13;;;;;;;;;;;;;;;;;;5513269;26;20052;-80
2024/04/13 06:43:45;;;;;;;16.13;10.93;;;;;;;;;;5548393;26;19926;-80
2024/04/13 06:46:20;;;;;;;12.05;10.80;;;;;;;;;;5525895;26;20073;-79
2024/04/13 06:48:54;;;;;;;13.82;10.43;;;;;;;;;;5523896;26;20062;-79
2024/04/13 06:51:31;;;;;;;11.70;9.48;;;;;;;;;;5551777;26;20016;-79
2024/04/13 06:54:03;;;;;;;10.90;9.20;;;;;;;;;;5517208;26;20030;-79
2024/04/13 06:56:41;;;;;;;12.13;9.93;;;;;;;;;;5520627;26;20008;-80
2024/04/13 06:59:14;;;;;;;11.68;9.68;;;;;;;;;;5520899;26;21372;-79
2024/04/13 07:01:53;;;;;;;12.93;9.55;;;;;;;;;;5549746;26;20009;-79
2024/04/13 07:04:26;;;;;;;12.05;10.32;;;;;;;;;;5539781;26;20077;-79
2024/04/13 07:07:04;;;;;;;14.40;10.03;;;;;;;;;;5532063;26;20039;-79
2024/04/13 07:09:40;;;;;;;12.38;9.88;;;;;;;;;;5516713;26;20004;-83
2024/04/13 07:12:14;;;;;;;13.57;10.13;;;;;;;;;;5516589;26;20019;-82
2024/04/13 07:14:50;;;;;;;12.52;10.73;;;;;;;;;;5516918;26;20000;-86
2024/04/13 07:17:25;;;;;;;11.48;9.55;;;;;;;;;;5547919;26;20005;-85
2024/04/13 07:19:59;;;;;;;12.55;9.88;;;;;;;;;;5560352;26;20000;-88
2024/04/13 07:22:37;;;;;;;12.80;8.90;;;;;;;;;;5560751;26;20019;-88
2024/04/13 07:25:10;;;;;;;10.60;8.63;;;;;;;;;;5521176;26;20338;-88
2024/04/13 07:27:49;;;;;;;14.32;9.65;;;;;;;;;;5550080;26;19997;-86
2024/04/13 07:30:22;;;;;;;11.13;8.85;;;;;;;;;;5517962;26;20032;-88
2024/04/13 07:33:00;;;;;;;13.40;9.00;;;;;;;;;;5519840;26;20032;-87
2024/04/13 07:35:36;;;;;;;13.23;9.13;;;;;;;;;;5527494;26;20008;-89
2024/04/13 07:38:16;;;;;;;13.88;9.23;;;;;;;;;;5533525;26;20019;-86
2024/04/13 07:40:47;;;;;;;10.70;8.40;;;;;;;;;;5540394;26;20016;-88
2024/04/13 07:43:22;;;;;;;10.23;8.27;;;;;;;;;;5509793;26;20077;-88
2024/04/13 07:45:57;;;;;;;14.52;9.13;;;;;;;;;;5516520;26;20000;-88
2024/04/13 07:48:33;;;;;;;11.45;8.32;;;;;;;;;;5600713;21;20017;-92
2024/04/13 07:51:09;;;;;;;9.35;6.75;;;;;;;;;;5512070;26;20098;-92
2024/04/13 07:53:50;;;;;;;8.65;7.75;;;;;;;;;;5502399;26;20004;-90
2024/04/13 07:56:26;;;;;;;10.50;8.18;;;;;;;;;;5545217;26;20143;-88
2024/04/13 07:59:04;;;;;;;13.52;8.88;;;;;;;;;;5525247;26;20081;-89
2024/04/13 08:01:41;;;;;;;8.50;7.25;;;;;;;;;;5506007;26;20000;-89
2024/04/13 08:04:19;;;;;;;10.95;7.53;;;;;;;;;;5504492;26;20596;-92
2024/04/13 08:06:58;;;;;;;8.23;7.32;;;;;;;;;;5550402;26;20001;-91
2024/04/13 08:09:40;;;;;;;8.85;7.95;;;;;;;;;;5530472;26;20097;-92
2024/04/13 08:12:17;;;;;;;12.85;7.45;;;;;;;;;;5505031;26;20043;-91
2024/04/13 08:14:57;;;;;;;8.20;7.38;;;;;;;;;;5532744;26;20007;-89
2024/04/13 08:17:31;;;;;;;8.20;7.10;;;;;;;;;;5547674;26;20000;-89
2024/04/13 08:20:08;;;;;;;8.82;6.60;;;;;;;;;;5528081;26;20018;-89
2024/04/13 08:22:43;;;;;;;9.30;6.97;;;;;;;;;;5531401;26;20004;-89
2024/04/13 08:25:21;;;;;;;9.82;7.22;;;;;;;;;;5545063;26;21457;-90
2024/04/13 08:27:53;;;;;;;9.82;6.38;;;;;;;;;;5510750;26;20032;-90
2024/04/13 08:30:30;;;;;;;9.73;6.90;;;;;;;;;;5517251;26;20164;-92
2024/04/13 08:33:02;;;;;;;10.20;7.03;;;;;;;;;;5516552;26;20019;-90
2024/04/13 08:35:37;;;;;;;7.63;6.60;;;;;;;;;;5556107;26;20556;-88
2024/04/13 08:38:09;;;;;;;8.07;6.07;;;;;;;;;;5524832;26;20628;-90
2024/04/13 08:40:51;;;;;;;8.73;6.22;;;;;;;;;;5527774;26;20712;-88
2024/04/13 08:43:23;;;;;;;7.40;5.88;;;;;;;;;;5554972;26;20007;-90
2024/04/13 08:46:03;;;;;;;9.23;6.30;;;;;;;;;;5526656;26;20760;-90
2024/04/13 08:48:39;;;;;;;9.05;6.30;;;;;;;;;;5519098;26;20027;-89
2024/04/13 08:51:14;;;;;;;7.07;5.88;;;;;;;;;;5529416;26;20004;-89
2024/04/13 08:53:49;;;;;;;6.82;5.85;;;;;;;;;;5530350;26;22555;-90
2024/04/13 08:59:17;;;;;;;9.10;5.05;;;;;;;;;;5398791;27;20018;-82
2024/04/13 09:01:56;;;;;;;6.90;5.20;;;;;;;;;;5409597;27;20043;-86
2024/04/13 09:04:32;;;;;;;8.38;5.30;;;;;;;;;;5431902;27;20007;-85
2024/04/13 09:07:09;;;;;;;9.98;5.95;;;;;;;;;;5445548;27;20011;-85
2024/04/13 09:09:46;;;;;;;7.90;5.72;;;;;;;;;;5445114;27;20025;-84
2024/04/13 09:12:22;;;;;;;8.00;5.43;;;;;;;;;;5448404;27;20085;-85
2024/04/13 09:14:57;;;;;;;8.95;5.50;;;;;;;;;;5421644;27;20007;-86
2024/04/13 09:17:31;;;;;;;7.82;5.75;;;;;;;;;;5452077;27;20010;-85
2024/04/13 09:20:09;;;;;;;7.03;5.05;;;;;;;;;;5449537;27;20006;-88
2024/04/13 09:22:42;;;;;;;8.40;5.40;;;;;;;;;;5454623;27;20034;-86
2024/04/13 09:25:24;;;;;;;8.95;5.20;;;;;;;;;;5397437;27;20006;-85
2024/04/13 09:28:02;;;;;;;8.43;5.03;;;;;;;;;;5443702;27;20081;-85
2024/04/13 09:30:43;;;;;;;7.65;4.90;;;;;;;;;;5458471;27;20049;-86
2024/04/13 09:33:16;;;;;;;7.00;4.53;;;;;;;;;;5432333;27;20080;-88
2024/04/13 09:35:59;;;;;;;8.38;4.88;;;;;;;;;;5456977;27;20025;-82
2024/04/13 09:38:36;;;;;;;6.78;4.97;;;;;;;;;;5443232;27;20061;-83
2024/04/13 09:41:15;;;;;;;7.47;4.88;;;;;;;;;;5422763;27;20018;-85
2024/04/13 09:43:51;;;;;;;6.13;4.32;;;;;;;;;;5416768;27;20011;-81
2024/04/13 09:46:27;;;;;;;7.13;5.05;;;;;;;;;;5389800;27;20010;-82
2024/04/13 09:49:02;;;;;;;6.38;4.80;;;;;;;;;;5420668;27;20050;-83
2024/04/13 09:51:46;;;;;;;7.40;4.90;;;;;;;;;;5433814;27;20005;-81
2024/04/13 09:54:20;;;;;;;7.90;4.38;;;;;;;;;;5437059;27;19998;-81
2024/04/13 09:57:00;;;;;;;7.60;4.63;;;;;;;;;;5419912;27;20010;-84
2024/04/13 09:59:38;;;;;;;7.18;4.45;;;;;;;;;;5424302;26;20540;-84
2024/04/13 10:02:14;;;;;;;7.82;4.70;;;;;;;;;;5442830;27;20010;-85
2024/04/13 10:04:50;;;;;;;6.03;4.22;;;;;;;;;;5437407;27;20014;-84
2024/04/13 10:07:29;;;;;;;6.97;4.35;;;;;;;;;;5435764;27;20003;-87
2024/04/13 10:10:03;;;;;;;8.70;3.67;;;;;;;;;;5432585;27;20004;-84
2024/04/13 10:12:44;;;;;;;6.30;4.13;;;;;;;;;;5459157;27;20526;-85
2024/04/13 10:15:22;;;;;;;6.32;4.00;;;;;;;;;;5424476;27;20009;-84
2024/04/13 10:18:06;;;;;;;6.47;4.15;;;;;;;;;;5388582;27;20862;-86
2024/04/13 10:20:40;;;;;;;6.18;4.45;;;;;;;;;;5447697;27;20081;-85
2024/04/13 10:23:16;;;;;;;6.18;4.60;;;;;;;;;;5379499;27;20063;-86
2024/04/13 10:25:56;;;;;;;7.20;3.80;;;;;;;;;;5448619;27;20022;-85
2024/04/13 10:28:35;;;;;;;7.13;4.18;;;;;;;;;;5421122;27;20049;-85
2024/04/13 10:31:18;;;;;;;6.72;3.70;;;;;;;;;;5450615;27;20068;-84
2024/04/13 10:33:59;;;;;;;8.80;3.97;;;;;;;;;;5393652;27;20034;-87
2024/04/13 10:36:35;;;;;;;7.97;3.60;;;;;;;;;;5388345;27;20740;-87
2024/04/13 10:39:23;;;;;;;6.60;3.67;;;;;;;;;;5441885;27;20116;-86
2024/04/13 10:41:56;;;;;;;5.82;3.75;;;;;;;;;;5452585;27;20396;-83
2024/04/13 10:44:32;;;;;;;6.20;3.35;;;;;;;;;;5422131;27;20175;-88
2024/04/13 10:47:10;;;;;;;5.28;3.25;;;;;;;;;;5410279;27;20042;-90
2024/04/13 10:49:51;;;;;;;5.85;3.15;;;;;;;;;;5426647;27;20010;-83
2024/04/13 10:52:38;;;;;;;6.35;3.45;;;;;;;;;;5448441;27;20050;-87
2024/04/13 10:55:13;;;;;;;10.35;3.58;;;;;;;;;;5451721;27;20356;-84
2024/04/13 10:57:49;;;;;;;5.75;3.67;;;;;;;;;;5433775;26;20017;-86
2024/04/13 11:00:23;;;;;;;5.38;2.83;;;;;;;;;;5416464;27;20002;-86
2024/04/13 11:03:03;;;;;;;5.70;3.10;;;;;;;;;;5442952;27;20328;-86
2024/04/13 11:05:42;;;;;;;5.47;3.40;;;;;;;;;;5428044;26;20017;-88
2024/04/13 11:08:15;;;;;;;5.45;3.30;;;;;;;;;;5427745;27;20022;-87
2024/04/13 11:10:52;;;;;;;5.87;3.10;;;;;;;;;;5456807;27;20005;-87
2024/04/13 11:13:24;;;;;;;6.35;3.20;;;;;;;;;;5467528;27;20025;-87
2024/04/13 11:16:00;;;;;;;5.60;3.55;;;;;;;;;;5464771;27;20001;-86
2024/04/13 11:18:36;;;;;;;7.18;3.33;;;;;;;;;;5477078;26;20010;-78
2024/04/13 11:21:13;;;;;;;7.88;3.65;;;;;;;;;;5452455;27;20022;-80
2024/04/13 11:23:46;;;;;;;6.32;3.60;;;;;;;;;;5449641;27;20085;-81
2024/04/13 11:26:21;;;;;;;7.63;4.00;;;;;;;;;;5446829;27;20089;-78
2024/04/13 11:28:53;;;;;;;4.28;3.10;;;;;;;;;;5436079;27;20077;-80
2024/04/13 11:31:28;;;;;;;6.45;3.28;;;;;;;;;;5452255;27;20010;-80
2024/04/13 11:34:05;;;;;;;4.82;3.50;;;;;;;;;;5414683;27;20015;-80
2024/04/13 11:36:40;;;;;;;7.25;3.78;;;;;;;;;;5448259;27;20021;-77
2024/04/13 11:39:12;;;;;;;4.53;3.17;;;;;;;;;;5453142;27;20010;-84
2024/04/13 11:41:50;;;;;;;;;;;;;;;;;;5431700;26;20599;-80
2024/04/13 11:44:26;;;;;;;5.90;4.00;;;;;;;;;;5455287;27;19935;-82
2024/04/13 11:47:01;;;;;;;6.85;3.30;;;;;;;;;;5467041;26;20006;-82
2024/04/13 11:49:35;;;;;;;5.93;3.25;;;;;;;;;;5528582;21;20001;-91
2024/04/13 11:52:18;;;;;;;4.60;2.78;;;;;;;;;;5511234;26;20564;-88
2024/04/13 11:54:51;;;;;;;5.75;2.97;;;;;;;;;;5481583;26;20026;-87
2024/04/13 11:57:29;;;;;;;5.07;2.60;;;;;;;;;;5558902;26;20009;-92
2024/04/13 12:00:05;;;;;;;3.42;2.42;;;;;;;;;;5461143;21;20034;-81
2024/04/13 12:02:47;;;;;;;5.00;2.15;;;;;;;;;;5422984;27;20006;-83
2024/04/13 12:05:26;;;;;;;6.40;2.60;;;;;;;;;;5379794;27;20022;-84
2024/04/13 12:08:04;;;;;;;3.85;2.20;;;;;;;;;;5443993;27;20015;-81
2024/04/13 12:10:38;;;;;;;3.78;2.17;;;;;;;;;;5433326;27;19999;-82
2024/04/13 12:13:12;;;;;;;3.55;2.47;;;;;;;;;;5495875;21;20021;-90
2024/04/13 12:15:47;;;;;;;4.10;2.20;;;;;;;;;;5517982;26;20009;-91
2024/04/13 12:18:29;;;;;;;3.25;1.80;;;;;;;;;;5504852;26;20056;-90
2024/04/13 12:21:04;;;;;;;5.85;1.88;;;;;;;;;;5558837;26;20019;-92
2024/04/13 12:23:41;;;;;;;4.20;1.90;;;;;;;;;;5524212;26;20766;-91
2024/04/13 12:26:15;;;;;;;5.47;2.30;;;;;;;;;;5628338;21;20016;-82
2024/04/13 12:28:53;;;;;;;5.63;2.20;;;;;;;;;;5477794;26;20010;-85
2024/04/13 12:31:26;;;;;;;2.90;2.15;;;;;;;;;;5472659;26;20010;-84
2024/04/13 12:34:05;;;;;;;4.10;2.10;;;;;;;;;;5518396;26;19997;-89
2024/04/13 12:36:43;;;;;;;3.85;2.25;;;;;;;;;;5499074;26;20015;-89
2024/04/13 12:39:21;;;;;;;3.35;2.22;;;;;;;;;;5479159;27;20018;-86
2024/04/13 12:41:54;;;;;;;7.32;2.33;;;;;;;;;;5469313;26;20185;-84
2024/04/13 12:44:34;;;;;;;3.70;2.40;;;;;;;;;;5470550;26;20006;-83
2024/04/13 12:47:06;;;;;;;4.25;2.92;;;;;;;;;;5502273;26;20004;-81
2024/04/13 12:49:47;;;;;;;6.05;2.50;;;;;;;;;;5580700;21;20008;-91
2024/04/13 12:52:27;;;;;;;4.47;2.20;;;;;;;;;;5496389;21;19993;-83
2024/04/13 12:55:07;;;;;;;3.47;2.00;;;;;;;;;;5589213;26;20014;-84
2024/04/13 12:57:39;;;;;;;3.85;2.20;;;;;;;;;;5534080;26;20019;-83
2024/04/13 13:00:19;;;;;;;3.63;2.00;;;;;;;;;;5591813;26;20046;-83
2024/04/13 13:02:51;;;;;;;4.47;2.05;;;;;;;;;;5571101;26;20023;-85
2024/04/13 13:05:27;;;;;;;3.80;2.05;;;;;;;;;;5593701;26;20019;-84
2024/04/13 13:08:02;;;;;;;4.03;2.10;;;;;;;;;;5568224;26;20003;-80
2024/04/13 13:10:43;;;;;;;6.13;2.47;;;;;;;;;;5603421;26;20479;-83
2024/04/13 13:13:16;;;;;;;4.50;1.80;;;;;;;;;;5565752;26;20045;-87
2024/04/13 13:15:52;;;;;;;6.72;1.98;;;;;;;;;;5597001;26;20008;-82
2024/04/13 13:18:26;;;;;;;6.55;2.15;;;;;;;;;;5605924;26;20012;-85
2024/04/13 13:21:02;;;;;;;3.13;1.65;;;;;;;;;;5596623;26;20000;-89
2024/04/13 13:23:38;;;;;;;4.03;1.83;;;;;;;;;;5599281;26;20003;-81
2024/04/13 13:26:12;;;;;;;4.13;1.83;;;;;;;;;;5575230;26;20007;-88
2024/04/13 13:28:45;;;;;;;5.13;2.00;;;;;;;;;;5574744;26;20027;-83
2024/04/13 13:31:23;;;;;;;2.08;1.60;;;;;;;;;;5603836;26;20015;-82
2024/04/13 13:34:05;;;;;;;4.05;1.70;;;;;;;;;;5571006;26;20039;-84
2024/04/13 13:36:43;;;;;;;3.75;1.80;;;;;;;;;;5546152;26;20042;-85
2024/04/13 13:39:21;;;;;;;3.97;2.05;;;;;;;;;;5554800;26;20024;-84
2024/04/13 13:41:57;;;;;;;3.60;2.20;;;;;;;;;;5610324;26;20039;-78
2024/04/13 13:44:33;;;;;;;6.10;1.90;;;;;;;;;;5589582;26;20023;-80
2024/04/13 13:47:08;;;;;;;4.32;2.03;;;;;;;;;;5575462;21;20064;-92
2024/04/13 13:49:40;;;;;;;3.75;1.60;;;;;;;;;;5412083;27;20054;-90
2024/04/13 13:52:16;;;;;;;2.40;1.58;;;;;;;;;;5458407;27;20007;-91
2024/04/13 13:54:51;;;;;;;3.22;1.77;;;;;;;;;;5422943;27;20017;-90
2024/04/13 14:00:25;;;;;;;3.00;1.90;;;;;;;;;;5390247;27;20026;-84
2024/04/13 14:02:57;;;;;;;4.18;2.00;;;;;;;;;;5352577;27;20103;-85
2024/04/13 14:05:34;;;;;;;3.25;1.90;;;;;;;;;;5427363;27;20026;-86
2024/04/13 14:08:07;;;;;;;4.05;1.75;;;;;;;;;;5404943;27;20003;-83
2024/04/13 14:10:45;;;;;;;6.35;2.00;;;;;;;;;;5402426;27;20022;-84
2024/04/13 14:13:17;;;;;;;9.50;3.30;;;;;;;;;;5395885;27;20019;-83
2024/04/13 14:15:55;;;;;;;2.70;1.65;;;;;;;;;;5437754;27;20014;-86
2024/04/13 14:18:33;;;;;;;2.63;1.60;;;;;;;;;;5402700;27;20026;-85
2024/04/13 14:21:08;;;;;;;6.72;2.10;;;;;;;;;;5421632;27;20015;-86
2024/04/13 14:23:41;;;;;;;4.20;2.03;;;;;;;;;;5425714;27;20344;-83
2024/04/13 14:26:21;;;;;;;3.78;1.95;;;;;;;;;;5529360;21;20014;-92
2024/04/13 14:29:01;;;;;;;3.03;2.10;;;;;;;;;;5487336;26;20096;-90
2024/04/13 14:31:38;;;;;;;4.78;2.30;;;;;;;;;;5904953;21;20004;-81
2024/04/13 14:34:14;;;;;;;3.35;2.13;;;;;;;;;;5677474;22;20006;-92
2024/04/13 14:36:53;;;;;;;4.40;1.77;;;;;;;;;;5549072;21;20005;-82
2024/04/13 14:39:26;;;;;;;4.90;2.10;;;;;;;;;;5502794;26;20025;-82
2024/04/13 14:42:26;;;;;;;4.75;2.22;;;;;;;;;;5619096;21;19998;-90
2024/04/13 14:45:03;;;;;;;2.72;1.67;;;;;;;;;;5486368;26;20131;-90
2024/04/13 14:47:38;;;;;;;5.00;1.90;;;;;;;;;;5442541;26;20009;-90
2024/04/13 14:50:16;;;;;;;4.72;1.90;;;;;;;;;;5518317;26;20010;-90
2024/04/13 14:52:51;;;;;;;5.13;2.10;;;;;;;;;;5466235;26;20010;-89
2024/04/13 14:55:27;;;;;;;5.13;1.85;;;;;;;;;;5496447;26;20006;-88
2024/04/13 14:58:08;;;;;;;4.13;2.10;;;;;;;;;;5493553;26;20076;-89
2024/04/13 15:00:47;;;;;;;3.70;1.70;;;;;;;;;;5492700;26;20022;-90
2024/04/13 15:03:21;;;;;;;4.38;1.90;;;;;;;;;;5505547;26;20003;-89
2024/04/13 15:05:53;;;;;;;5.13;1.85;;;;;;;;;;5490412;26;20009;-90
2024/04/13 15:08:32;;;;;;;3.38;1.77;;;;;;;;;;5514512;26;20002;-89
2024/04/13 15:11:08;;;;;;;5.10;1.70;;;;;;;;;;5510371;26;20005;-90
2024/04/13 15:13:47;;;;;;;2.92;1.70;;;;;;;;;;5512999;26;20010;-89
2024/04/13 15:16:23;;;;;;;4.43;1.65;;;;;;;;;;5519927;26;20005;-90
2024/04/13 15:18:58;;;;;;;3.55;2.25;;;;;;;;;;5517388;26;20022;-90
2024/04/13 15:21:31;;;;;;;4.10;2.00;;;;;;;;;;5494698;26;20010;-89
2024/04/13 15:24:06;;;;;;;3.70;1.88;;;;;;;;;;5496641;26;20017;-90
2024/04/13 15:26:39;;;;;;;4.38;1.88;;;;;;;;;;5483180;26;20011;-91
2024/04/13 15:29:15;;;;;;;2.97;1.77;;;;;;;;;;5522465;26;20017;-90
2024/04/13 15:31:51;;;;;;;3.45;2.08;;;;;;;;;;5523587;26;20005;-91
2024/04/13 15:34:28;;;;;;;2.97;1.88;;;;;;;;;;5515091;26;20012;-92